createdAt,value
2018-04-14T00:02:27.833Z,12.6
2018-04-14T00:12:26.971Z,13.1
2018-04-14T00:22:26.262Z,13
2018-04-14T00:32:25.399Z,12.9
2018-04-14T00:42:24.615Z,13.1
2018-04-14T00:52:23.895Z,13
2018-04-14T01:02:23.337Z,13.1
2018-04-14T01:12:22.392Z,13.1
2018-04-14T01:22:21.478Z,13
2018-04-14T01:32:20.744Z,12.9
2018-04-14T01:42:20.011Z,13.2
2018-04-14T01:52:19.129Z,13
2018-04-14T02:02:18.376Z,13
2018-04-14T02:12:17.540Z,13.1
2018-04-14T02:22:16.827Z,13.1
2018-04-14T02:32:15.970Z,12.8
2018-04-14T02:42:15.229Z,12.6
2018-04-14T02:52:14.507Z,12.5
2018-04-14T03:02:13.967Z,12.7
2018-04-14T03:12:12.820Z,12.8
2018-04-14T03:22:12.133Z,13.1
2018-04-14T03:32:11.352Z,13.1
2018-04-14T03:42:10.810Z,12.6
2018-04-14T03:52:09.681Z,12.6
2018-04-14T04:02:09.181Z,12.5
2018-04-14T04:12:08.096Z,13.1
2018-04-14T04:22:07.303Z,13.2
2018-04-14T04:32:06.526Z,13.7
2018-04-14T04:42:06.019Z,14.5
2018-04-14T04:52:05.246Z,14.4
2018-04-14T05:02:04.203Z,14
2018-04-14T05:12:03.370Z,14.2
2018-04-14T05:22:03.203Z,14.7
2018-04-14T05:32:02.090Z,14.3
2018-04-14T05:42:01.050Z,14.7
2018-04-14T05:52:00.221Z,14.5
2018-04-14T06:01:59.485Z,14.2
2018-04-14T06:11:58.642Z,14
2018-04-14T06:21:58.226Z,14.5
2018-04-14T06:31:57.091Z,14.7
2018-04-14T06:41:56.341Z,14.7
2018-04-14T06:51:55.524Z,14.2
2018-04-14T07:01:54.775Z,14.5
2018-04-14T07:11:53.934Z,14
2018-04-14T07:21:53.156Z,14.4
2018-04-14T07:31:52.386Z,14
2018-04-14T07:41:51.650Z,14.5
2018-04-14T07:51:50.797Z,14.5
2018-04-14T08:01:50.022Z,14.1
2018-04-14T08:11:49.298Z,14.4
2018-04-14T08:21:48.763Z,14.4
2018-04-14T08:31:47.976Z,14.4
2018-04-14T08:41:46.900Z,14.4
2018-04-14T08:51:46.100Z,14.1
2018-04-14T09:01:45.394Z,14
2018-04-14T09:11:44.552Z,14
2018-04-14T09:21:43.803Z,14
2018-04-14T09:31:43.253Z,14.4
2018-04-14T09:41:42.199Z,14.6
2018-04-14T09:51:41.422Z,14.6
2018-04-14T10:01:40.646Z,14.5
2018-04-14T10:11:40.422Z,14.2
2018-04-14T10:21:39.065Z,14.2
2018-04-14T10:31:38.348Z,14.2
2018-04-14T10:41:37.563Z,13.9
2018-04-14T10:51:36.739Z,14.5
2018-04-14T11:01:35.958Z,14.4
2018-04-14T11:11:35.167Z,14.4
2018-04-14T11:21:34.384Z,14.1
2018-04-14T11:31:33.881Z,14.7
2018-04-14T11:41:32.891Z,13.8
2018-04-14T11:51:32.034Z,14.4
2018-04-14T12:01:31.372Z,14.4
2018-04-14T12:11:30.744Z,14.7
2018-04-14T12:21:29.678Z,14.4
2018-04-14T12:31:28.962Z,14.6
2018-04-14T12:41:28.119Z,14.4
2018-04-14T12:51:27.614Z,14.6
2018-04-14T13:01:26.541Z,14.4
2018-04-14T13:11:25.810Z,14.3
2018-04-14T13:21:24.982Z,14.2
2018-04-14T13:31:24.543Z,14.7
2018-04-14T13:41:23.419Z,14.7
2018-04-14T13:51:22.645Z,14.1
2018-04-14T14:01:21.848Z,14.1
2018-04-14T14:11:21.051Z,13.8
2018-04-14T14:21:20.266Z,14.4
2018-04-14T14:31:19.816Z,13.7
2018-04-14T14:41:18.729Z,14.2
2018-04-14T14:51:17.968Z,13.4
2018-04-14T15:01:17.142Z,12.9
2018-04-14T15:11:16.356Z,13
2018-04-14T15:21:15.566Z,13
2018-04-14T15:31:14.796Z,13.1
2018-04-14T15:41:13.992Z,13.2
2018-04-14T15:51:13.267Z,12.6
2018-04-14T16:01:12.711Z,12.8
2018-04-14T16:11:11.714Z,13.1
2018-04-14T16:21:10.944Z,12.6
2018-04-14T16:31:10.381Z,13.1
2018-04-14T16:41:09.612Z,13.1
2018-04-14T16:51:08.523Z,13.2
2018-04-14T17:01:07.716Z,13.1
2018-04-14T17:11:06.936Z,12.8
2018-04-14T17:21:06.159Z,13.1
2018-04-14T17:31:05.725Z,12.5
2018-04-14T17:41:04.877Z,12.7
2018-04-14T17:51:03.791Z,13.1
2018-04-14T18:01:03.013Z,12.8
2018-04-14T18:11:02.574Z,12.8
2018-04-14T18:21:01.461Z,12.7
2018-04-14T18:31:00.664Z,12.6
2018-04-14T18:40:59.881Z,13.1
2018-04-14T18:50:59.120Z,12.6
2018-04-14T19:00:58.334Z,12.8
2018-04-14T19:10:57.543Z,12.6
2018-04-14T19:20:56.808Z,13.1
2018-04-14T19:30:55.965Z,13.1
2018-04-14T19:40:55.266Z,12.8
2018-04-14T19:50:54.424Z,12.6
2018-04-14T20:00:53.906Z,12.7
2018-04-14T20:10:52.843Z,12.6
2018-04-14T20:20:52.055Z,12.6
2018-04-14T20:30:51.621Z,12.9
2018-04-14T20:40:50.804Z,13.1
2018-04-14T20:50:49.784Z,13
2018-04-14T21:00:48.957Z,12.7
2018-04-14T21:10:48.150Z,13.2
2018-04-14T21:20:47.649Z,12.9
2018-04-14T21:30:46.582Z,13
2018-04-14T21:40:45.799Z,12.7
2018-04-14T21:50:45.087Z,12.7
2018-04-14T22:00:44.235Z,12.6
2018-04-14T22:10:43.457Z,12.7
2018-04-14T22:20:42.689Z,13
2018-04-14T22:30:41.994Z,13.1
2018-04-14T22:40:41.133Z,12.5
2018-04-14T22:50:40.630Z,12.6
2018-04-14T23:00:39.641Z,12.8
2018-04-14T23:10:38.758Z,13
2018-04-14T23:20:37.976Z,13.2
2018-04-14T23:30:37.215Z,12.9
2018-04-14T23:40:36.470Z,12.7
2018-04-14T23:50:35.641Z,13
